This is the latest recevied weather packets stored in our database for station/object KJ4TDM. If no packets are shown the sender has not sent any weather packets the latest 10 day(s).
| Time | Temp. | Humidity | Pressure | Rain* | Wind** | Luminosity | Snow |
|---|---|---|---|---|---|---|---|
| 1777667447 | 19.44° C | 51% | 1014.2 hPa | 0 mm | - | - | - |
| 1777666538 | 20° C | 51% | 1014.5 hPa | 0 mm | - | - | - |
| 1777661175 | 20° C | 52% | 1015.3 hPa | 0 mm | - | - | - |
| 1777653052 | 16.11° C | 78% | 1016.2 hPa | 0 mm | - | - | - |
| 1777651268 | 15° C | 79% | 1016.2 hPa | 0 mm | - | - | - |
| 1777649465 | 14.44° C | 82% | 1016.4 hPa | 0 mm | - | - | - |
| 1777647672 | 13.89° C | 83% | 1016.1 hPa | 0 mm | - | - | - |
| 1777640470 | 12.22° C | 87% | 1015.4 hPa | 0 mm | - | - | - |
| 1777635062 | 10° C | 93% | 1014.7 hPa | 0 mm | - | - | - |
| 1777634136 | 10° C | 92% | 1014.5 hPa | 0 mm | - | - | - |
| 1777630564 | 10° C | 91% | 1014.2 hPa | 0 mm | - | - | - |
| 1777629698 | 10° C | 91% | 1014.2 hPa | 0 mm | - | - | - |
| 1777626936 | 10.56° C | 91% | 1014.2 hPa | 0 mm | - | - | - |
| 1777620651 | 12.22° C | 86% | 1014.1 hPa | 0 mm | - | - | - |
| 1777616143 | 12.78° C | 83% | 1014.8 hPa | 0 mm | - | - | - |
| 1777613438 | 12.78° C | 81% | 1014.4 hPa | 0 mm | - | - | - |
| 1777609879 | 13.33° C | 77% | 1014.5 hPa | 0 mm | - | - | - |
| 1777606255 | 13.33° C | 81% | 1014.9 hPa | 0 mm | - | - | - |
| 1777594544 | 16.67° C | 66% | 1013.9 hPa | 0 mm | - | - | - |
| 1777589131 | 19.44° C | 55% | 1013.4 hPa | 0 mm | - | - | - |
| 1777572015 | 20.56° C | 56% | 1014.3 hPa | 0 mm | - | - | - |
| 1777567545 | 19.44° C | 65% | 1014.8 hPa | 0 mm | - | - | - |
| 1777565753 | 18.89° C | 67% | 1014.9 hPa | 0.25 mm | - | - | - |
| 1777560339 | 16.67° C | 78% | 1014.5 hPa | 0 mm | - | - | - |
| 1777559475 | 16.11° C | 79% | 1014.3 hPa | 0 mm | - | - | - |
* Rain latest hour (hover to see other rain measurements)
** Current wind speed in m/s (hover to see current wind gust speed)